sensor_id;sensor_type;location;lat;lon;timestamp;P1;durP1;ratioP1;P2;durP2;ratioP2
17365;SDS011;8800;50.118;9.900;2022-12-28T00:02:21;19.33;;;7.65;;
17365;SDS011;8800;50.118;9.900;2022-12-28T00:04:48;21.52;;;8.77;;
17365;SDS011;8800;50.118;9.900;2022-12-28T00:07:14;21.75;;;10.93;;
17365;SDS011;8800;50.118;9.900;2022-12-28T00:09:40;24.63;;;9.65;;
17365;SDS011;8800;50.118;9.900;2022-12-28T00:12:07;24.80;;;10.10;;
17365;SDS011;8800;50.118;9.900;2022-12-28T00:14:33;17.60;;;7.80;;
17365;SDS011;8800;50.118;9.900;2022-12-28T00:17:01;19.35;;;7.55;;
17365;SDS011;8800;50.118;9.900;2022-12-28T00:19:27;20.13;;;8.77;;
17365;SDS011;8800;50.118;9.900;2022-12-28T00:21:54;20.35;;;9.15;;
17365;SDS011;8800;50.118;9.900;2022-12-28T00:24:21;18.30;;;8.38;;
17365;SDS011;8800;50.118;9.900;2022-12-28T00:26:47;23.00;;;9.25;;
17365;SDS011;8800;50.118;9.900;2022-12-28T00:29:14;16.17;;;8.60;;
17365;SDS011;8800;50.118;9.900;2022-12-28T00:31:40;17.98;;;7.78;;
17365;SDS011;8800;50.118;9.900;2022-12-28T00:34:08;13.55;;;7.07;;
17365;SDS011;8800;50.118;9.900;2022-12-28T00:36:34;19.27;;;7.35;;
17365;SDS011;8800;50.118;9.900;2022-12-28T00:39:01;18.75;;;6.25;;
17365;SDS011;8800;50.118;9.900;2022-12-28T00:41:27;12.68;;;6.45;;
17365;SDS011;8800;50.118;9.900;2022-12-28T00:43:54;16.70;;;6.65;;
17365;SDS011;8800;50.118;9.900;2022-12-28T00:46:20;20.77;;;7.20;;
17365;SDS011;8800;50.118;9.900;2022-12-28T00:48:46;16.17;;;6.22;;
17365;SDS011;8800;50.118;9.900;2022-12-28T00:51:15;19.65;;;7.82;;
17365;SDS011;8800;50.118;9.900;2022-12-28T00:53:42;18.58;;;7.13;;
17365;SDS011;8800;50.118;9.900;2022-12-28T00:56:09;17.77;;;6.80;;
17365;SDS011;8800;50.118;9.900;2022-12-28T00:58:36;21.38;;;8.00;;
17365;SDS011;8800;50.118;9.900;2022-12-28T01:01:02;14.82;;;6.95;;
17365;SDS011;8800;50.118;9.900;2022-12-28T01:03:29;18.42;;;7.10;;
17365;SDS011;8800;50.118;9.900;2022-12-28T01:05:55;19.38;;;7.50;;
17365;SDS011;8800;50.118;9.900;2022-12-28T01:08:23;22.52;;;7.97;;
17365;SDS011;8800;50.118;9.900;2022-12-28T01:10:49;17.52;;;7.57;;
17365;SDS011;8800;50.118;9.900;2022-12-28T01:13:16;16.48;;;7.18;;
17365;SDS011;8800;50.118;9.900;2022-12-28T01:15:42;12.30;;;6.20;;
17365;SDS011;8800;50.118;9.900;2022-12-28T01:18:09;22.13;;;8.40;;
17365;SDS011;8800;50.118;9.900;2022-12-28T01:20:37;20.48;;;7.50;;
17365;SDS011;8800;50.118;9.900;2022-12-28T01:23:03;16.38;;;7.20;;
17365;SDS011;8800;50.118;9.900;2022-12-28T01:25:32;16.08;;;7.03;;
17365;SDS011;8800;50.118;9.900;2022-12-28T01:27:58;14.75;;;6.65;;
17365;SDS011;8800;50.118;9.900;2022-12-28T01:30:25;20.05;;;7.80;;
17365;SDS011;8800;50.118;9.900;2022-12-28T01:32:51;17.58;;;7.20;;
17365;SDS011;8800;50.118;9.900;2022-12-28T01:35:18;14.85;;;6.88;;
17365;SDS011;8800;50.118;9.900;2022-12-28T01:37:44;15.32;;;6.55;;
17365;SDS011;8800;50.118;9.900;2022-12-28T01:40:12;19.77;;;7.38;;
17365;SDS011;8800;50.118;9.900;2022-12-28T01:42:41;15.00;;;6.43;;
17365;SDS011;8800;50.118;9.900;2022-12-28T01:45:17;16.35;;;7.10;;
17365;SDS011;8800;50.118;9.900;2022-12-28T01:47:44;16.27;;;8.63;;
17365;SDS011;8800;50.118;9.900;2022-12-28T01:50:11;20.55;;;7.22;;
17365;SDS011;8800;50.118;9.900;2022-12-28T01:52:40;16.27;;;6.38;;
17365;SDS011;8800;50.118;9.900;2022-12-28T01:55:09;17.98;;;6.40;;
17365;SDS011;8800;50.118;9.900;2022-12-28T01:57:38;16.50;;;7.15;;
17365;SDS011;8800;50.118;9.900;2022-12-28T02:00:09;17.90;;;6.95;;
17365;SDS011;8800;50.118;9.900;2022-12-28T02:02:36;11.35;;;5.40;;
17365;SDS011;8800;50.118;9.900;2022-12-28T02:05:03;13.38;;;5.90;;
17365;SDS011;8800;50.118;9.900;2022-12-28T02:07:34;17.85;;;7.05;;
17365;SDS011;8800;50.118;9.900;2022-12-28T02:10:01;17.90;;;7.85;;
17365;SDS011;8800;50.118;9.900;2022-12-28T02:12:28;20.08;;;8.02;;
17365;SDS011;8800;50.118;9.900;2022-12-28T02:14:54;26.50;;;9.25;;
17365;SDS011;8800;50.118;9.900;2022-12-28T02:17:22;16.42;;;7.47;;
17365;SDS011;8800;50.118;9.900;2022-12-28T02:19:48;17.17;;;7.93;;
17365;SDS011;8800;50.118;9.900;2022-12-28T02:25:04;16.73;;;7.45;;
17365;SDS011;8800;50.118;9.900;2022-12-28T02:27:38;18.80;;;7.20;;
17365;SDS011;8800;50.118;9.900;2022-12-28T02:30:10;14.45;;;6.63;;
17365;SDS011;8800;50.118;9.900;2022-12-28T02:32:39;15.70;;;5.63;;
17365;SDS011;8800;50.118;9.900;2022-12-28T02:35:08;14.15;;;5.63;;
17365;SDS011;8800;50.118;9.900;2022-12-28T02:37:39;13.23;;;6.25;;
17365;SDS011;8800;50.118;9.900;2022-12-28T02:40:08;17.05;;;7.63;;
17365;SDS011;8800;50.118;9.900;2022-12-28T02:42:36;20.98;;;7.30;;
17365;SDS011;8800;50.118;9.900;2022-12-28T02:45:04;23.45;;;9.10;;
17365;SDS011;8800;50.118;9.900;2022-12-28T02:47:50;22.45;;;8.93;;
17365;SDS011;8800;50.118;9.900;2022-12-28T02:50:35;21.67;;;8.27;;
17365;SDS011;8800;50.118;9.900;2022-12-28T02:53:19;19.77;;;7.93;;
17365;SDS011;8800;50.118;9.900;2022-12-28T02:55:55;20.00;;;7.10;;
17365;SDS011;8800;50.118;9.900;2022-12-28T02:58:43;15.57;;;8.13;;
17365;SDS011;8800;50.118;9.900;2022-12-28T03:01:15;16.92;;;7.72;;
17365;SDS011;8800;50.118;9.900;2022-12-28T03:03:47;12.85;;;6.00;;
17365;SDS011;8800;50.118;9.900;2022-12-28T03:06:18;14.48;;;5.60;;
17365;SDS011;8800;50.118;9.900;2022-12-28T03:09:08;11.85;;;6.22;;
17365;SDS011;8800;50.118;9.900;2022-12-28T03:11:38;15.55;;;5.93;;
17365;SDS011;8800;50.118;9.900;2022-12-28T03:14:08;21.17;;;8.77;;
17365;SDS011;8800;50.118;9.900;2022-12-28T03:16:36;14.52;;;6.25;;
17365;SDS011;8800;50.118;9.900;2022-12-28T03:19:27;18.15;;;7.60;;
17365;SDS011;8800;50.118;9.900;2022-12-28T03:22:13;16.05;;;6.45;;
17365;SDS011;8800;50.118;9.900;2022-12-28T03:24:57;15.15;;;5.90;;
17365;SDS011;8800;50.118;9.900;2022-12-28T03:27:42;15.70;;;6.30;;
17365;SDS011;8800;50.118;9.900;2022-12-28T03:30:27;15.88;;;5.80;;
17365;SDS011;8800;50.118;9.900;2022-12-28T03:33:12;14.25;;;5.78;;
17365;SDS011;8800;50.118;9.900;2022-12-28T03:35:41;15.60;;;5.47;;
17365;SDS011;8800;50.118;9.900;2022-12-28T03:38:09;13.20;;;6.28;;
17365;SDS011;8800;50.118;9.900;2022-12-28T03:40:39;12.60;;;5.03;;
17365;SDS011;8800;50.118;9.900;2022-12-28T03:43:09;17.05;;;6.20;;
17365;SDS011;8800;50.118;9.900;2022-12-28T03:45:53;10.73;;;5.18;;
17365;SDS011;8800;50.118;9.900;2022-12-28T03:48:21;12.73;;;5.45;;
17365;SDS011;8800;50.118;9.900;2022-12-28T03:50:50;8.50;;;4.00;;
17365;SDS011;8800;50.118;9.900;2022-12-28T03:53:18;10.77;;;3.72;;
17365;SDS011;8800;50.118;9.900;2022-12-28T03:55:45;14.00;;;4.38;;
17365;SDS011;8800;50.118;9.900;2022-12-28T03:58:12;9.32;;;4.32;;
17365;SDS011;8800;50.118;9.900;2022-12-28T04:00:38;11.25;;;3.88;;
17365;SDS011;8800;50.118;9.900;2022-12-28T04:03:04;12.70;;;3.80;;
17365;SDS011;8800;50.118;9.900;2022-12-28T04:05:31;10.77;;;4.90;;
17365;SDS011;8800;50.118;9.900;2022-12-28T04:07:59;16.95;;;7.00;;
17365;SDS011;8800;50.118;9.900;2022-12-28T04:10:25;18.20;;;7.70;;
17365;SDS011;8800;50.118;9.900;2022-12-28T04:12:53;12.85;;;4.90;;
17365;SDS011;8800;50.118;9.900;2022-12-28T04:15:19;9.45;;;4.53;;
17365;SDS011;8800;50.118;9.900;2022-12-28T04:17:46;11.63;;;5.40;;
17365;SDS011;8800;50.118;9.900;2022-12-28T04:20:12;16.38;;;6.28;;
17365;SDS011;8800;50.118;9.900;2022-12-28T04:22:38;21.48;;;8.15;;
17365;SDS011;8800;50.118;9.900;2022-12-28T04:25:07;21.73;;;9.63;;
17365;SDS011;8800;50.118;9.900;2022-12-28T04:27:33;16.70;;;7.30;;
17365;SDS011;8800;50.118;9.900;2022-12-28T04:29:59;20.98;;;7.22;;
17365;SDS011;8800;50.118;9.900;2022-12-28T04:32:26;15.05;;;6.15;;
17365;SDS011;8800;50.118;9.900;2022-12-28T04:34:52;10.73;;;4.05;;
17365;SDS011;8800;50.118;9.900;2022-12-28T04:37:18;9.27;;;4.25;;
17365;SDS011;8800;50.118;9.900;2022-12-28T04:39:45;9.70;;;3.95;;
17365;SDS011;8800;50.118;9.900;2022-12-28T04:42:13;8.75;;;3.97;;
17365;SDS011;8800;50.118;9.900;2022-12-28T04:44:39;8.05;;;3.70;;
17365;SDS011;8800;50.118;9.900;2022-12-28T04:47:05;9.65;;;3.45;;
17365;SDS011;8800;50.118;9.900;2022-12-28T04:49:32;8.88;;;3.45;;
17365;SDS011;8800;50.118;9.900;2022-12-28T04:51:58;6.30;;;3.45;;
17365;SDS011;8800;50.118;9.900;2022-12-28T04:54:24;9.02;;;3.28;;
17365;SDS011;8800;50.118;9.900;2022-12-28T04:56:51;7.18;;;3.13;;
17365;SDS011;8800;50.118;9.900;2022-12-28T04:59:18;8.48;;;3.53;;
17365;SDS011;8800;50.118;9.900;2022-12-28T05:01:45;6.78;;;3.20;;
17365;SDS011;8800;50.118;9.900;2022-12-28T05:04:11;7.18;;;3.10;;
17365;SDS011;8800;50.118;9.900;2022-12-28T05:06:38;10.82;;;3.88;;
17365;SDS011;8800;50.118;9.900;2022-12-28T05:09:04;8.95;;;3.70;;
17365;SDS011;8800;50.118;9.900;2022-12-28T05:11:31;8.80;;;3.65;;
17365;SDS011;8800;50.118;9.900;2022-12-28T05:13:57;8.32;;;3.70;;
17365;SDS011;8800;50.118;9.900;2022-12-28T05:16:26;9.23;;;3.90;;
17365;SDS011;8800;50.118;9.900;2022-12-28T05:18:53;7.43;;;3.15;;
17365;SDS011;8800;50.118;9.900;2022-12-28T05:21:20;5.75;;;2.70;;
17365;SDS011;8800;50.118;9.900;2022-12-28T05:23:47;7.95;;;2.58;;
17365;SDS011;8800;50.118;9.900;2022-12-28T05:26:14;6.93;;;3.00;;
17365;SDS011;8800;50.118;9.900;2022-12-28T05:28:41;6.47;;;3.20;;
17365;SDS011;8800;50.118;9.900;2022-12-28T05:31:09;5.80;;;2.80;;
17365;SDS011;8800;50.118;9.900;2022-12-28T05:33:37;9.40;;;3.05;;
17365;SDS011;8800;50.118;9.900;2022-12-28T05:36:04;7.32;;;3.13;;
17365;SDS011;8800;50.118;9.900;2022-12-28T05:38:31;7.38;;;3.53;;
17365;SDS011;8800;50.118;9.900;2022-12-28T05:41:02;8.48;;;2.75;;
17365;SDS011;8800;50.118;9.900;2022-12-28T05:43:29;7.13;;;2.90;;
17365;SDS011;8800;50.118;9.900;2022-12-28T05:45:58;9.32;;;3.20;;
17365;SDS011;8800;50.118;9.900;2022-12-28T05:48:25;6.15;;;3.10;;
17365;SDS011;8800;50.118;9.900;2022-12-28T05:50:52;9.50;;;3.33;;
17365;SDS011;8800;50.118;9.900;2022-12-28T05:53:19;9.48;;;3.83;;
17365;SDS011;8800;50.118;9.900;2022-12-28T05:55:45;7.18;;;3.20;;
17365;SDS011;8800;50.118;9.900;2022-12-28T05:58:12;7.45;;;2.92;;
17365;SDS011;8800;50.118;9.900;2022-12-28T06:00:38;5.60;;;2.90;;
17365;SDS011;8800;50.118;9.900;2022-12-28T06:03:04;22.90;;;7.35;;
17365;SDS011;8800;50.118;9.900;2022-12-28T06:05:31;19.15;;;5.68;;
17365;SDS011;8800;50.118;9.900;2022-12-28T06:07:58;12.10;;;3.85;;
17365;SDS011;8800;50.118;9.900;2022-12-28T06:10:25;10.13;;;3.67;;
17365;SDS011;8800;50.118;9.900;2022-12-28T06:12:51;12.95;;;4.97;;
17365;SDS011;8800;50.118;9.900;2022-12-28T06:15:17;6.20;;;2.90;;
17365;SDS011;8800;50.118;9.900;2022-12-28T06:17:44;16.88;;;7.82;;
17365;SDS011;8800;50.118;9.900;2022-12-28T06:20:10;10.20;;;3.67;;
17365;SDS011;8800;50.118;9.900;2022-12-28T06:22:37;3.75;;;2.50;;
17365;SDS011;8800;50.118;9.900;2022-12-28T06:25:05;5.10;;;2.60;;
17365;SDS011;8800;50.118;9.900;2022-12-28T06:27:31;9.43;;;3.45;;
17365;SDS011;8800;50.118;9.900;2022-12-28T06:29:58;6.35;;;2.42;;
17365;SDS011;8800;50.118;9.900;2022-12-28T06:32:24;5.72;;;2.35;;
17365;SDS011;8800;50.118;9.900;2022-12-28T06:34:50;8.55;;;2.65;;
17365;SDS011;8800;50.118;9.900;2022-12-28T06:37:17;3.97;;;2.28;;
17365;SDS011;8800;50.118;9.900;2022-12-28T06:39:43;4.18;;;2.08;;
17365;SDS011;8800;50.118;9.900;2022-12-28T06:42:11;5.82;;;2.50;;
17365;SDS011;8800;50.118;9.900;2022-12-28T06:44:37;5.63;;;2.55;;
17365;SDS011;8800;50.118;9.900;2022-12-28T06:47:04;5.40;;;2.30;;
17365;SDS011;8800;50.118;9.900;2022-12-28T06:49:30;5.93;;;2.63;;
17365;SDS011;8800;50.118;9.900;2022-12-28T06:51:57;4.50;;;2.20;;
17365;SDS011;8800;50.118;9.900;2022-12-28T06:54:23;4.60;;;2.33;;
17365;SDS011;8800;50.118;9.900;2022-12-28T06:56:49;6.40;;;2.40;;
17365;SDS011;8800;50.118;9.900;2022-12-28T06:59:17;6.53;;;2.40;;
17365;SDS011;8800;50.118;9.900;2022-12-28T07:01:43;4.95;;;2.10;;
17365;SDS011;8800;50.118;9.900;2022-12-28T07:04:10;4.30;;;2.03;;
17365;SDS011;8800;50.118;9.900;2022-12-28T07:06:37;4.07;;;2.30;;
17365;SDS011;8800;50.118;9.900;2022-12-28T07:09:05;6.00;;;2.83;;
17365;SDS011;8800;50.118;9.900;2022-12-28T07:11:32;7.40;;;2.58;;
17365;SDS011;8800;50.118;9.900;2022-12-28T07:13:58;7.38;;;2.30;;
17365;SDS011;8800;50.118;9.900;2022-12-28T07:16:27;6.07;;;2.50;;
17365;SDS011;8800;50.118;9.900;2022-12-28T07:18:53;4.80;;;1.90;;
17365;SDS011;8800;50.118;9.900;2022-12-28T07:21:21;7.20;;;2.42;;
17365;SDS011;8800;50.118;9.900;2022-12-28T07:23:47;4.60;;;2.00;;
17365;SDS011;8800;50.118;9.900;2022-12-28T07:26:15;3.92;;;2.20;;
17365;SDS011;8800;50.118;9.900;2022-12-28T07:28:43;4.70;;;2.08;;
17365;SDS011;8800;50.118;9.900;2022-12-28T07:31:11;5.10;;;2.63;;
17365;SDS011;8800;50.118;9.900;2022-12-28T07:33:39;4.55;;;2.20;;
17365;SDS011;8800;50.118;9.900;2022-12-28T07:36:06;4.40;;;2.63;;
17365;SDS011;8800;50.118;9.900;2022-12-28T07:38:34;5.38;;;2.67;;
17365;SDS011;8800;50.118;9.900;2022-12-28T07:41:00;5.97;;;2.90;;
17365;SDS011;8800;50.118;9.900;2022-12-28T07:43:28;7.20;;;3.60;;
17365;SDS011;8800;50.118;9.900;2022-12-28T07:45:59;8.68;;;3.70;;
17365;SDS011;8800;50.118;9.900;2022-12-28T07:48:27;6.60;;;3.30;;
17365;SDS011;8800;50.118;9.900;2022-12-28T07:50:55;6.93;;;3.13;;
17365;SDS011;8800;50.118;9.900;2022-12-28T07:53:21;8.70;;;3.97;;
17365;SDS011;8800;50.118;9.900;2022-12-28T07:55:53;3.45;;;2.08;;
17365;SDS011;8800;50.118;9.900;2022-12-28T07:58:20;4.78;;;2.13;;
17365;SDS011;8800;50.118;9.900;2022-12-28T08:00:47;3.35;;;1.73;;
17365;SDS011;8800;50.118;9.900;2022-12-28T08:03:14;4.18;;;1.67;;
17365;SDS011;8800;50.118;9.900;2022-12-28T08:05:40;3.40;;;1.70;;
17365;SDS011;8800;50.118;9.900;2022-12-28T08:08:08;5.85;;;1.83;;
17365;SDS011;8800;50.118;9.900;2022-12-28T08:10:35;3.92;;;1.80;;
17365;SDS011;8800;50.118;9.900;2022-12-28T08:13:02;3.53;;;1.80;;
17365;SDS011;8800;50.118;9.900;2022-12-28T08:15:29;4.80;;;2.15;;
17365;SDS011;8800;50.118;9.900;2022-12-28T08:17:55;5.15;;;1.95;;
17365;SDS011;8800;50.118;9.900;2022-12-28T08:20:22;4.65;;;1.73;;
17365;SDS011;8800;50.118;9.900;2022-12-28T08:22:48;5.05;;;1.60;;
17365;SDS011;8800;50.118;9.900;2022-12-28T08:25:16;6.82;;;1.85;;
17365;SDS011;8800;50.118;9.900;2022-12-28T08:27:42;5.68;;;1.83;;
17365;SDS011;8800;50.118;9.900;2022-12-28T08:30:09;6.40;;;2.00;;
17365;SDS011;8800;50.118;9.900;2022-12-28T08:32:36;5.53;;;1.77;;
17365;SDS011;8800;50.118;9.900;2022-12-28T08:35:03;3.38;;;1.80;;
17365;SDS011;8800;50.118;9.900;2022-12-28T08:37:29;4.22;;;2.20;;
17365;SDS011;8800;50.118;9.900;2022-12-28T08:39:55;2.47;;;1.85;;
17365;SDS011;8800;50.118;9.900;2022-12-28T08:42:23;3.08;;;1.50;;
17365;SDS011;8800;50.118;9.900;2022-12-28T08:44:50;5.25;;;3.13;;
17365;SDS011;8800;50.118;9.900;2022-12-28T08:47:16;7.30;;;3.38;;
17365;SDS011;8800;50.118;9.900;2022-12-28T08:49:42;10.00;;;4.20;;
17365;SDS011;8800;50.118;9.900;2022-12-28T08:52:09;11.55;;;5.18;;
17365;SDS011;8800;50.118;9.900;2022-12-28T08:54:35;10.15;;;4.13;;
17365;SDS011;8800;50.118;9.900;2022-12-28T08:57:02;9.98;;;3.40;;
17365;SDS011;8800;50.118;9.900;2022-12-28T08:59:30;8.60;;;3.22;;
17365;SDS011;8800;50.118;9.900;2022-12-28T09:01:56;6.32;;;2.05;;
17365;SDS011;8800;50.118;9.900;2022-12-28T09:04:22;5.00;;;1.90;;
17365;SDS011;8800;50.118;9.900;2022-12-28T09:06:49;5.90;;;2.50;;
17365;SDS011;8800;50.118;9.900;2022-12-28T09:09:16;10.80;;;3.70;;
17365;SDS011;8800;50.118;9.900;2022-12-28T09:11:43;15.48;;;4.43;;
17365;SDS011;8800;50.118;9.900;2022-12-28T09:14:10;10.98;;;4.25;;
17365;SDS011;8800;50.118;9.900;2022-12-28T09:16:38;8.25;;;2.70;;
17365;SDS011;8800;50.118;9.900;2022-12-28T09:19:05;5.60;;;2.70;;
17365;SDS011;8800;50.118;9.900;2022-12-28T09:21:33;6.70;;;1.75;;
17365;SDS011;8800;50.118;9.900;2022-12-28T09:24:00;5.82;;;2.20;;
17365;SDS011;8800;50.118;9.900;2022-12-28T09:26:26;4.63;;;1.95;;
17365;SDS011;8800;50.118;9.900;2022-12-28T09:28:54;4.18;;;1.30;;
17365;SDS011;8800;50.118;9.900;2022-12-28T09:31:21;6.85;;;1.80;;
17365;SDS011;8800;50.118;9.900;2022-12-28T09:33:49;4.10;;;1.38;;
17365;SDS011;8800;50.118;9.900;2022-12-28T09:36:25;2.97;;;1.35;;
17365;SDS011;8800;50.118;9.900;2022-12-28T09:38:52;3.75;;;1.60;;
17365;SDS011;8800;50.118;9.900;2022-12-28T09:41:21;3.17;;;1.15;;
17365;SDS011;8800;50.118;9.900;2022-12-28T09:43:48;4.97;;;1.55;;
17365;SDS011;8800;50.118;9.900;2022-12-28T09:46:17;5.13;;;2.20;;
17365;SDS011;8800;50.118;9.900;2022-12-28T09:48:44;4.25;;;1.67;;
17365;SDS011;8800;50.118;9.900;2022-12-28T09:51:13;4.65;;;2.55;;
17365;SDS011;8800;50.118;9.900;2022-12-28T09:53:40;4.68;;;2.05;;
17365;SDS011;8800;50.118;9.900;2022-12-28T09:56:12;3.00;;;1.40;;
17365;SDS011;8800;50.118;9.900;2022-12-28T09:58:40;4.53;;;1.50;;
17365;SDS011;8800;50.118;9.900;2022-12-28T10:01:08;3.30;;;1.75;;
17365;SDS011;8800;50.118;9.900;2022-12-28T10:03:36;4.35;;;1.60;;
17365;SDS011;8800;50.118;9.900;2022-12-28T10:06:07;5.28;;;1.70;;
17365;SDS011;8800;50.118;9.900;2022-12-28T10:08:37;4.82;;;1.70;;
17365;SDS011;8800;50.118;9.900;2022-12-28T10:11:05;3.38;;;1.50;;
17365;SDS011;8800;50.118;9.900;2022-12-28T10:13:33;4.50;;;1.70;;
17365;SDS011;8800;50.118;9.900;2022-12-28T10:16:02;3.80;;;1.45;;
17365;SDS011;8800;50.118;9.900;2022-12-28T10:18:30;4.43;;;1.65;;
17365;SDS011;8800;50.118;9.900;2022-12-28T10:20:59;5.10;;;1.60;;
17365;SDS011;8800;50.118;9.900;2022-12-28T10:23:27;2.85;;;1.48;;
17365;SDS011;8800;50.118;9.900;2022-12-28T10:25:56;2.40;;;1.30;;
17365;SDS011;8800;50.118;9.900;2022-12-28T10:28:24;5.30;;;1.63;;
17365;SDS011;8800;50.118;9.900;2022-12-28T10:31:01;3.15;;;1.20;;
17365;SDS011;8800;50.118;9.900;2022-12-28T10:33:28;5.72;;;1.30;;
17365;SDS011;8800;50.118;9.900;2022-12-28T10:35:55;4.20;;;1.40;;
17365;SDS011;8800;50.118;9.900;2022-12-28T10:38:22;4.55;;;1.40;;
17365;SDS011;8800;50.118;9.900;2022-12-28T10:40:58;7.13;;;1.65;;
17365;SDS011;8800;50.118;9.900;2022-12-28T10:43:26;3.17;;;1.73;;
17365;SDS011;8800;50.118;9.900;2022-12-28T10:45:53;2.03;;;1.27;;
17365;SDS011;8800;50.118;9.900;2022-12-28T10:48:22;4.50;;;1.58;;
17365;SDS011;8800;50.118;9.900;2022-12-28T10:50:50;7.03;;;3.33;;
17365;SDS011;8800;50.118;9.900;2022-12-28T10:53:19;3.70;;;1.20;;
17365;SDS011;8800;50.118;9.900;2022-12-28T10:55:46;4.57;;;1.40;;
17365;SDS011;8800;50.118;9.900;2022-12-28T10:58:19;4.70;;;1.50;;
17365;SDS011;8800;50.118;9.900;2022-12-28T11:00:55;6.97;;;1.65;;
17365;SDS011;8800;50.118;9.900;2022-12-28T11:03:23;3.53;;;1.30;;
17365;SDS011;8800;50.118;9.900;2022-12-28T11:05:50;4.03;;;1.42;;
17365;SDS011;8800;50.118;9.900;2022-12-28T11:08:32;5.78;;;2.25;;
17365;SDS011;8800;50.118;9.900;2022-12-28T11:10:58;2.83;;;1.48;;
17365;SDS011;8800;50.118;9.900;2022-12-28T11:13:26;3.10;;;1.50;;
17365;SDS011;8800;50.118;9.900;2022-12-28T11:15:53;3.42;;;1.50;;
17365;SDS011;8800;50.118;9.900;2022-12-28T11:18:20;6.60;;;1.55;;
17365;SDS011;8800;50.118;9.900;2022-12-28T11:20:47;3.97;;;1.45;;
17365;SDS011;8800;50.118;9.900;2022-12-28T11:23:16;3.28;;;1.40;;
17365;SDS011;8800;50.118;9.900;2022-12-28T11:25:43;5.68;;;2.10;;
17365;SDS011;8800;50.118;9.900;2022-12-28T11:28:11;5.97;;;1.40;;
17365;SDS011;8800;50.118;9.900;2022-12-28T11:30:41;3.55;;;1.10;;
17365;SDS011;8800;50.118;9.900;2022-12-28T11:33:21;3.97;;;1.40;;
17365;SDS011;8800;50.118;9.900;2022-12-28T11:35:48;4.10;;;1.20;;
17365;SDS011;8800;50.118;9.900;2022-12-28T11:40:58;5.18;;;1.65;;
17365;SDS011;8800;50.118;9.900;2022-12-28T11:43:35;4.25;;;1.65;;
17365;SDS011;8800;50.118;9.900;2022-12-28T11:46:06;2.80;;;1.15;;
17365;SDS011;8800;50.118;9.900;2022-12-28T11:48:46;2.47;;;1.10;;
17365;SDS011;8800;50.118;9.900;2022-12-28T11:51:14;2.97;;;1.20;;
17365;SDS011;8800;50.118;9.900;2022-12-28T11:53:48;3.58;;;1.63;;
17365;SDS011;8800;50.118;9.900;2022-12-28T11:56:16;5.03;;;1.25;;
17365;SDS011;8800;50.118;9.900;2022-12-28T11:58:44;5.25;;;2.78;;
17365;SDS011;8800;50.118;9.900;2022-12-28T12:04:13;7.43;;;2.55;;
17365;SDS011;8800;50.118;9.900;2022-12-28T12:09:38;5.25;;;1.83;;
17365;SDS011;8800;50.118;9.900;2022-12-28T12:14:49;8.32;;;2.63;;
17365;SDS011;8800;50.118;9.900;2022-12-28T12:17:20;5.15;;;2.35;;
17365;SDS011;8800;50.118;9.900;2022-12-28T12:19:49;6.43;;;2.33;;
17365;SDS011;8800;50.118;9.900;2022-12-28T12:22:18;4.93;;;2.45;;
17365;SDS011;8800;50.118;9.900;2022-12-28T12:24:47;7.47;;;2.50;;
17365;SDS011;8800;50.118;9.900;2022-12-28T12:27:20;4.40;;;1.85;;
17365;SDS011;8800;50.118;9.900;2022-12-28T12:29:50;6.13;;;1.77;;
17365;SDS011;8800;50.118;9.900;2022-12-28T12:32:20;6.65;;;1.80;;
17365;SDS011;8800;50.118;9.900;2022-12-28T12:34:49;5.57;;;1.52;;
17365;SDS011;8800;50.118;9.900;2022-12-28T12:37:20;2.65;;;1.45;;
17365;SDS011;8800;50.118;9.900;2022-12-28T12:40:06;5.10;;;1.75;;
17365;SDS011;8800;50.118;9.900;2022-12-28T12:42:40;3.75;;;1.40;;
17365;SDS011;8800;50.118;9.900;2022-12-28T12:45:12;2.80;;;1.40;;
17365;SDS011;8800;50.118;9.900;2022-12-28T12:50:48;1.73;;;1.20;;
17365;SDS011;8800;50.118;9.900;2022-12-28T12:53:22;4.00;;;1.40;;
17365;SDS011;8800;50.118;9.900;2022-12-28T12:55:54;2.50;;;1.63;;
17365;SDS011;8800;50.118;9.900;2022-12-28T12:58:24;3.15;;;1.45;;
17365;SDS011;8800;50.118;9.900;2022-12-28T13:01:00;5.90;;;2.28;;
17365;SDS011;8800;50.118;9.900;2022-12-28T13:03:33;5.25;;;2.28;;
17365;SDS011;8800;50.118;9.900;2022-12-28T13:06:04;4.57;;;2.00;;
17365;SDS011;8800;50.118;9.900;2022-12-28T13:08:33;7.93;;;2.20;;
17365;SDS011;8800;50.118;9.900;2022-12-28T13:11:02;4.20;;;2.03;;
17365;SDS011;8800;50.118;9.900;2022-12-28T13:13:31;6.88;;;2.30;;
17365;SDS011;8800;50.118;9.900;2022-12-28T13:16:00;7.20;;;3.05;;
17365;SDS011;8800;50.118;9.900;2022-12-28T13:18:28;6.18;;;2.80;;
17365;SDS011;8800;50.118;9.900;2022-12-28T13:20:56;8.43;;;3.55;;
17365;SDS011;8800;50.118;9.900;2022-12-28T13:23:24;19.27;;;8.57;;
17365;SDS011;8800;50.118;9.900;2022-12-28T13:25:52;20.02;;;9.23;;
17365;SDS011;8800;50.118;9.900;2022-12-28T13:28:21;21.10;;;9.43;;
17365;SDS011;8800;50.118;9.900;2022-12-28T13:30:57;19.38;;;9.20;;
17365;SDS011;8800;50.118;9.900;2022-12-28T13:33:26;16.00;;;7.38;;
17365;SDS011;8800;50.118;9.900;2022-12-28T13:36:03;16.17;;;7.60;;
17365;SDS011;8800;50.118;9.900;2022-12-28T13:38:31;14.73;;;7.20;;
17365;SDS011;8800;50.118;9.900;2022-12-28T13:40:58;20.33;;;9.07;;
17365;SDS011;8800;50.118;9.900;2022-12-28T13:46:07;38.90;;;15.00;;
17365;SDS011;8800;50.118;9.900;2022-12-28T13:48:34;35.80;;;14.70;;
17365;SDS011;8800;50.118;9.900;2022-12-28T13:51:03;29.00;;;12.50;;
17365;SDS011;8800;50.118;9.900;2022-12-28T13:53:31;29.52;;;12.18;;
17365;SDS011;8800;50.118;9.900;2022-12-28T13:55:59;24.00;;;11.25;;
17365;SDS011;8800;50.118;9.900;2022-12-28T13:58:27;20.98;;;10.15;;
17365;SDS011;8800;50.118;9.900;2022-12-28T14:00:56;20.92;;;9.77;;
17365;SDS011;8800;50.118;9.900;2022-12-28T14:03:23;17.50;;;7.20;;
17365;SDS011;8800;50.118;9.900;2022-12-28T14:05:50;38.75;;;17.98;;
17365;SDS011;8800;50.118;9.900;2022-12-28T14:08:19;39.20;;;18.00;;
17365;SDS011;8800;50.118;9.900;2022-12-28T14:10:48;21.20;;;8.80;;
17365;SDS011;8800;50.118;9.900;2022-12-28T14:13:15;16.08;;;7.93;;
17365;SDS011;8800;50.118;9.900;2022-12-28T14:15:43;20.77;;;7.13;;
17365;SDS011;8800;50.118;9.900;2022-12-28T14:18:12;15.32;;;5.97;;
17365;SDS011;8800;50.118;9.900;2022-12-28T14:20:46;9.68;;;4.30;;
17365;SDS011;8800;50.118;9.900;2022-12-28T14:23:19;7.63;;;3.40;;
17365;SDS011;8800;50.118;9.900;2022-12-28T14:25:46;6.32;;;3.08;;
17365;SDS011;8800;50.118;9.900;2022-12-28T14:28:16;10.25;;;4.50;;
17365;SDS011;8800;50.118;9.900;2022-12-28T14:30:48;12.55;;;6.10;;
17365;SDS011;8800;50.118;9.900;2022-12-28T14:33:17;92.80;;;40.45;;
17365;SDS011;8800;50.118;9.900;2022-12-28T14:35:46;23.15;;;13.77;;
17365;SDS011;8800;50.118;9.900;2022-12-28T14:38:15;10.23;;;6.75;;
17365;SDS011;8800;50.118;9.900;2022-12-28T14:40:41;25.38;;;15.80;;
17365;SDS011;8800;50.118;9.900;2022-12-28T14:43:09;12.25;;;6.55;;
17365;SDS011;8800;50.118;9.900;2022-12-28T14:45:41;10.48;;;5.38;;
17365;SDS011;8800;50.118;9.900;2022-12-28T14:48:23;16.95;;;8.27;;
17365;SDS011;8800;50.118;9.900;2022-12-28T14:50:56;10.93;;;4.18;;
17365;SDS011;8800;50.118;9.900;2022-12-28T14:53:23;11.23;;;5.80;;
17365;SDS011;8800;50.118;9.900;2022-12-28T14:55:55;13.15;;;6.00;;
17365;SDS011;8800;50.118;9.900;2022-12-28T14:58:23;7.95;;;4.22;;
17365;SDS011;8800;50.118;9.900;2022-12-28T15:00:55;10.15;;;3.42;;
17365;SDS011;8800;50.118;9.900;2022-12-28T15:03:22;9.70;;;3.88;;
17365;SDS011;8800;50.118;9.900;2022-12-28T15:05:53;9.63;;;5.72;;
17365;SDS011;8800;50.118;9.900;2022-12-28T15:08:20;11.07;;;4.50;;
17365;SDS011;8800;50.118;9.900;2022-12-28T15:10:48;12.30;;;5.88;;
17365;SDS011;8800;50.118;9.900;2022-12-28T15:13:15;5.55;;;3.28;;
17365;SDS011;8800;50.118;9.900;2022-12-28T15:15:42;5.97;;;3.70;;
17365;SDS011;8800;50.118;9.900;2022-12-28T15:18:11;16.35;;;7.72;;
17365;SDS011;8800;50.118;9.900;2022-12-28T15:20:38;14.35;;;6.55;;
17365;SDS011;8800;50.118;9.900;2022-12-28T15:23:04;17.13;;;8.27;;
17365;SDS011;8800;50.118;9.900;2022-12-28T15:25:31;9.35;;;4.63;;